Date,TemperatureHighF,TemperatureAvgF,TemperatureLowF,DewpointHighF,DewpointAvgF,DewpointLowF,HumidityHigh,HumidityAvg,HumidityLow,PressureMaxIn,PressureMinIn,WindSpeedMaxMPH,WindSpeedAvgMPH,GustSpeedMaxMPH,PrecipitationSumIn
2013-3-1,69.0,55.7,48.0,-99.9,-99.9,-99.9,0,0,100,30.41,30.21,11,-10,13,0.00
2013-3-2,63.0,55.4,52.0,-99.9,-99.9,-99.9,0,0,100,30.23,30.05,12,-16,19,0.00
2013-3-3,59.0,51.9,49.0,-99.9,-99.9,-99.9,0,0,100,30.09,30.03,16,7,26,0.00
2013-3-4,53.0,48.8,47.0,-99.9,-99.9,-99.9,0,0,100,30.14,30.04,17,6,23,0.00
2013-3-5,55.0,50.4,47.0,-99.9,-99.9,-99.9,0,0,100,30.05,29.81,22,10,36,0.00
2013-3-6,55.0,51.8,50.0,-99.9,-99.9,-99.9,0,0,100,30.05,29.81,19,7,31,0.00
2013-3-7,53.0,49.3,47.0,-99.9,-99.9,-99.9,0,0,100,29.98,29.84,13,7,16,0.00
2013-3-8,55.0,50.8,48.0,-99.9,-99.9,-99.9,0,0,100,30.03,29.81,19,8,29,0.00
2013-3-9,63.0,53.2,47.0,-99.9,-99.9,-99.9,0,0,100,30.28,30.02,13,-16,17,0.00
2013-3-10,64.0,53.4,49.0,-99.9,-99.9,-99.9,0,0,100,30.33,30.23,11,-11,16,0.00
2013-3-11,67.0,52.7,48.0,-99.9,-99.9,-99.9,0,0,100,30.25,30.09,15,-17,20,0.00
2013-3-12,67.0,53.4,48.0,-99.9,-99.9,-99.9,0,0,100,30.15,30.05,11,-38,16,0.00
2013-3-13,74.0,56.0,47.0,-99.9,-99.9,-99.9,0,0,100,30.15,30.04,9,-10,13,0.00
2013-3-14,62.0,54.2,50.0,-99.9,-99.9,-99.9,0,0,100,30.15,30.07,15,-24,20,0.00
2013-3-15,64.0,54.7,51.0,-99.9,-99.9,-99.9,0,0,100,30.11,30.02,11,-45,16,0.00
2013-3-16,63.0,53.9,48.0,-99.9,-99.9,-99.9,0,0,100,30.10,30.01,12,5,22,0.00
2013-3-17,61.0,54.2,51.0,-99.9,-99.9,-99.9,0,0,100,30.14,30.03,15,-9,24,0.00
2013-3-18,62.0,52.8,50.0,-99.9,-99.9,-99.9,0,0,100,30.11,30.02,15,-16,28,0.00
2013-3-19,61.0,53.6,50.0,-99.9,-99.9,-99.9,0,0,100,30.12,30.04,11,-10,17,0.00
2013-3-20,57.0,53.4,51.0,-99.9,-99.9,-99.9,0,0,100,30.12,30.04,14,6,17,0.00
2013-3-21,59.0,52.1,47.0,-99.9,-99.9,-99.9,0,0,100,30.11,30.00,13,-7,18,0.00
2013-3-22,62.0,54.9,50.0,-99.9,-99.9,-99.9,0,0,100,30.11,30.01,15,-15,20,0.00
2013-3-23,62.0,54.0,50.0,-99.9,-99.9,-99.9,0,0,100,30.12,30.03,13,-2,19,0.00
2013-3-24,63.0,52.4,49.0,-99.9,-99.9,-99.9,0,0,100,30.08,29.96,13,-10,21,0.00
2013-3-25,54.0,49.8,47.0,-99.9,-99.9,-99.9,0,0,100,30.02,29.91,17,7,27,0.00
2013-3-26,58.0,51.9,48.0,-99.9,-99.9,-99.9,0,0,100,29.99,29.92,17,8,22,0.00
2013-3-27,59.0,54.0,51.0,-99.9,-99.9,-99.9,0,0,100,30.00,29.93,10,5,17,0.00
2013-3-28,62.0,56.5,53.0,-99.9,-99.9,-99.9,0,0,100,30.07,29.98,12,5,17,0.00
2013-3-29,70.0,55.5,50.0,-99.9,-99.9,-99.9,0,0,100,30.07,30.00,15,4,21,0.00
2013-3-30,66.0,55.7,52.0,-99.9,-99.9,-99.9,0,0,100,30.06,29.96,11,6,16,0.00
2013-3-31,62.0,57.9,54.0,-99.9,-99.9,-99.9,0,0,100,30.04,29.97,14,6,19,0.00